Time;durP1;ratioP1;P1;durP2;ratioP2;P2;SDS_P1;SDS_P2;PMS_P1;PMS_P2;Temp;Humidity;BMP_temperature;BMP_pressure;BME280_temperature;BME280_humidity;BME280_pressure;Samples;Min_cycle;Max_cycle;Signal;HPM_P1;HPM_P2
2022/06/12 00:02:15;;;;;;;;;;;;;;;;;;4980946;28;137351;-63
2022/06/12 00:04:41;;;;;;;;;;;;;;;;;;4986335;28;137110;-64
2022/06/12 00:07:08;;;;;;;;;;;;;;;;;;4987282;28;126669;-65
2022/06/12 00:09:34;;;;;;;;;;;;;;;;;;4987357;28;118894;-66
2022/06/12 00:12:00;;;;;;;;;;;;;;;;;;4986746;28;137196;-65
2022/06/12 00:14:27;;;;;;;;;;;;;;;;;;4980082;28;116082;-65
2022/06/12 00:16:54;;;;;;;;;;;;;;;;;;4986982;28;117184;-65
2022/06/12 00:19:20;;;;;;;;;;;;;;;;;;4988864;28;125372;-65
2022/06/12 00:21:46;;;;;;;;;;;;;;;;;;4978845;28;121669;-65
2022/06/12 00:24:13;;;;;;;;;;;;;;;;;;4984443;28;133052;-65
2022/06/12 00:26:39;;;;;;;;;;;;;;;;;;4983120;28;129792;-65
2022/06/12 00:29:05;;;;;;;;;;;;;;;;;;4986102;28;127373;-65
2022/06/12 00:31:32;;;;;;;;;;;;;;;;;;4986955;28;128734;-65
2022/06/12 00:33:58;;;;;;;;;;;;;;;;;;4980595;28;127925;-65
2022/06/12 00:36:24;;;;;;;;;;;;;;;;;;4987374;28;135235;-65
2022/06/12 00:38:50;;;;;;;;;;;;;;;;;;4977448;28;136923;-64
2022/06/12 00:41:17;;;;;;;;;;;;;;;;;;4988211;28;121127;-64
2022/06/12 00:43:43;;;;;;;;;;;;;;;;;;4993836;28;133685;-65
2022/06/12 00:46:09;;;;;;;;;;;;;;;;;;4980137;28;128752;-65
2022/06/12 00:48:36;;;;;;;;;;;;;;;;;;4981904;28;135386;-65
2022/06/12 00:51:02;;;;;;;;;;;;;;;;;;4988391;28;119043;-65
2022/06/12 00:53:28;;;;;;;;;;;;;;;;;;4977408;28;125984;-64
2022/06/12 00:55:54;;;;;;;;;;;;;;;;;;4986755;28;136086;-65
2022/06/12 00:58:22;;;;;;;;;;;;;;;;;;4985512;28;136403;-67
2022/06/12 01:00:48;;;;;;;;;;;;;;;;;;4999568;28;128982;-65
2022/06/12 01:03:14;;;;;;;;;;;;;;;;;;4981814;28;130883;-65
2022/06/12 01:08:25;;;;;;;;;;;;;;;;;;4985047;28;135189;-65
2022/06/12 01:10:51;;;;;;;;;;;;;;;;;;4984959;28;137090;-65
2022/06/12 01:13:18;;;;;;;;;;;;;;;;;;4985446;28;106260;-65
2022/06/12 01:15:44;;;;;;;;;;;;;;;;;;4983879;28;135365;-65
2022/06/12 01:18:11;;;;;;;;;;;;;;;;;;4979104;28;136291;-65
2022/06/12 01:20:37;;;;;;;;;;;;;;;;;;4986009;28;106087;-65
2022/06/12 01:23:04;;;;;;;;;;;;;;;;;;4992264;28;106477;-68
2022/06/12 01:25:30;;;;;;;;;;;;;;;;;;4983747;28;128577;-65
2022/06/12 01:27:56;;;;;;;;;;;;;;;;;;4984866;28;132490;-65
2022/06/12 01:30:23;;;;;;;;;;;;;;;;;;4986081;28;137187;-65
2022/06/12 01:32:49;;;;;;;;;;;;;;;;;;4981870;28;129427;-65
2022/06/12 01:35:15;;;;;;;;;;;;;;;;;;4981715;28;135140;-65
2022/06/12 01:37:41;;;;;;;;;;;;;;;;;;4987151;28;136677;-65
2022/06/12 01:40:08;;;;;;;;;;;;;;;;;;4982011;28;130131;-62
2022/06/12 01:42:34;;;;;;;;;;;;;;;;;;4981935;28;116761;-65
2022/06/12 01:45:01;;;;;;;;;;;;;;;;;;4988075;28;130156;-65
2022/06/12 01:47:27;;;;;;;;;;;;;;;;;;4984401;28;136298;-65
2022/06/12 01:49:53;;;;;;;;;;;;;;;;;;4985612;28;119509;-65
2022/06/12 01:52:21;;;;;;;;;;;;;;;;;;4983277;28;129978;-64
2022/06/12 01:54:47;;;;;;;;;;;;;;;;;;4981355;28;136423;-66
2022/06/12 01:57:13;;;;;;;;;;;;;;;;;;4977905;28;135764;-65
2022/06/12 01:59:40;;;;;;;;;;;;;;;;;;4980755;28;129211;-65
2022/06/12 02:02:06;;;;;;;;;;;;;;;;;;4984368;28;123972;-65
2022/06/12 02:04:32;;;;;;;;;;;;;;;;;;4975798;28;116770;-65
2022/06/12 02:06:59;;;;;;;;;;;;;;;;;;4990772;28;105970;-65
2022/06/12 02:09:25;;;;;;;;;;;;;;;;;;4979699;28;138129;-65
2022/06/12 02:14:37;;;;;;;;;;;;;;;;;;4979704;28;130593;-65
2022/06/12 02:17:04;;;;;;;;;;;;;;;;;;4981171;28;125054;-65
2022/06/12 02:19:30;;;;;;;;;;;;;;;;;;4982781;28;129264;-63
2022/06/12 02:21:56;;;;;;;;;;;;;;;;;;4984299;28;136986;-63
2022/06/12 02:24:22;;;;;;;;;;;;;;;;;;4979491;28;127113;-63
2022/06/12 02:26:49;;;;;;;;;;;;;;;;;;4982297;28;107157;-64
2022/06/12 02:29:15;;;;;;;;;;;;;;;;;;4985267;28;136596;-64
2022/06/12 02:31:41;;;;;;;;;;;;;;;;;;4980815;28;106379;-65
2022/06/12 02:34:08;;;;;;;;;;;;;;;;;;4983719;28;135466;-64
2022/06/12 02:36:34;;;;;;;;;;;;;;;;;;4977592;28;131765;-65
2022/06/12 02:39:00;;;;;;;;;;;;;;;;;;4984151;28;123663;-64
2022/06/12 02:41:27;;;;;;;;;;;;;;;;;;4983197;28;136633;-63
2022/06/12 02:43:54;;;;;;;;;;;;;;;;;;4980865;28;138044;-63
2022/06/12 02:46:20;;;;;;;;;;;;;;;;;;4975122;28;128807;-63
2022/06/12 02:48:46;;;;;;;;;;;;;;;;;;4978700;28;118861;-63
2022/06/12 02:51:13;;;;;;;;;;;;;;;;;;4984042;28;136327;-63
2022/06/12 02:53:39;;;;;;;;;;;;;;;;;;4983056;28;134905;-63
2022/06/12 02:56:06;;;;;;;;;;;;;;;;;;4981737;28;136429;-64
2022/06/12 02:58:32;;;;;;;;;;;;;;;;;;4983245;28;128841;-63
2022/06/12 03:00:58;;;;;;;;;;;;;;;;;;4975273;28;135343;-63
2022/06/12 03:03:25;;;;;;;;;;;;;;;;;;4979141;28;137046;-65
2022/06/12 03:05:52;;;;;;;;;;;;;;;;;;4977070;28;129161;-63
2022/06/12 03:08:18;;;;;;;;;;;;;;;;;;4982629;28;120350;-63
2022/06/12 03:10:44;;;;;;;;;;;;;;;;;;4985938;28;137764;-63
2022/06/12 03:13:10;;;;;;;;;;;;;;;;;;4986646;28;136622;-63
2022/06/12 03:15:37;;;;;;;;;;;;;;;;;;4983782;28;127713;-63
2022/06/12 03:18:03;;;;;;;;;;;;;;;;;;4985010;28;106169;-63
2022/06/12 03:20:29;;;;;;;;;;;;;;;;;;4988118;28;125897;-64
2022/06/12 03:22:56;;;;;;;;;;;;;;;;;;4984588;28;136930;-64
2022/06/12 03:25:22;;;;;;;;;;;;;;;;;;4983916;28;106235;-64
2022/06/12 03:27:49;;;;;;;;;;;;;;;;;;4988168;28;135628;-63
2022/06/12 03:30:15;;;;;;;;;;;;;;;;;;4979644;28;134485;-63
2022/06/12 03:32:41;;;;;;;;;;;;;;;;;;4986955;28;128388;-64
2022/06/12 03:35:07;;;;;;;;;;;;;;;;;;4985135;28;125026;-64
2022/06/12 03:37:34;;;;;;;;;;;;;;;;;;4988006;28;117704;-66
2022/06/12 03:40:00;;;;;;;;;;;;;;;;;;4985663;28;112550;-63
2022/06/12 03:42:26;;;;;;;;;;;;;;;;;;4988162;28;137169;-63
2022/06/12 03:44:53;;;;;;;;;;;;;;;;;;4985925;28;129229;-63
2022/06/12 03:47:19;;;;;;;;;;;;;;;;;;4984763;28;127888;-64
2022/06/12 03:49:45;;;;;;;;;;;;;;;;;;4986498;28;136929;-64
2022/06/12 03:52:14;;;;;;;;;;;;;;;;;;4986655;28;129024;-63
2022/06/12 03:54:41;;;;;;;;;;;;;;;;;;4982465;28;136037;-64
2022/06/12 03:59:52;;;;;;;;;;;;;;;;;;4985804;28;136523;-63
2022/06/12 04:02:19;;;;;;;;;;;;;;;;;;4984516;28;136272;-63
2022/06/12 04:04:45;;;;;;;;;;;;;;;;;;4982492;28;129600;-63
2022/06/12 04:07:11;;;;;;;;;;;;;;;;;;4983827;28;129030;-63
2022/06/12 04:09:37;;;;;;;;;;;;;;;;;;4987782;28;135757;-64
2022/06/12 04:12:04;;;;;;;;;;;;;;;;;;4981170;28;110756;-64
2022/06/12 04:14:30;;;;;;;;;;;;;;;;;;4986670;28;127055;-63
2022/06/12 04:16:57;;;;;;;;;;;;;;;;;;4985887;28;125073;-63
2022/06/12 04:19:23;;;;;;;;;;;;;;;;;;4980391;28;121439;-64
2022/06/12 04:21:50;;;;;;;;;;;;;;;;;;4979649;28;136048;-63
2022/06/12 04:24:16;;;;;;;;;;;;;;;;;;4984247;28;115240;-63
2022/06/12 04:26:43;;;;;;;;;;;;;;;;;;4983960;28;117767;-63
2022/06/12 04:29:09;;;;;;;;;;;;;;;;;;4986811;28;110282;-63
2022/06/12 04:31:35;;;;;;;;;;;;;;;;;;4977008;28;117417;-64
2022/06/12 04:34:02;;;;;;;;;;;;;;;;;;4984278;28;122157;-64
2022/06/12 04:36:28;;;;;;;;;;;;;;;;;;4983553;28;138349;-64
2022/06/12 04:38:54;;;;;;;;;;;;;;;;;;4984692;28;129323;-64
2022/06/12 04:41:21;;;;;;;;;;;;;;;;;;4985588;28;128875;-66
2022/06/12 04:43:47;;;;;;;;;;;;;;;;;;4982669;28;128646;-64
2022/06/12 04:46:13;;;;;;;;;;;;;;;;;;4984544;28;127931;-64
2022/06/12 04:48:39;;;;;;;;;;;;;;;;;;4982864;28;137188;-64
2022/06/12 04:51:06;;;;;;;;;;;;;;;;;;4984471;28;128378;-65
2022/06/12 04:53:32;;;;;;;;;;;;;;;;;;4982408;28;135498;-66
2022/06/12 04:55:58;;;;;;;;;;;;;;;;;;4983488;28;136717;-63
2022/06/12 04:58:25;;;;;;;;;;;;;;;;;;4981042;28;127077;-64
2022/06/12 05:00:51;;;;;;;;;;;;;;;;;;4981971;28;110075;-64
2022/06/12 05:03:17;;;;;;;;;;;;;;;;;;4985841;28;123558;-63
2022/06/12 05:05:44;;;;;;;;;;;;;;;;;;4983065;28;107242;-66
2022/06/12 05:08:10;;;;;;;;;;;;;;;;;;4975941;28;126960;-64
2022/06/12 05:10:36;;;;;;;;;;;;;;;;;;4981229;28;127819;-64
2022/06/12 05:13:03;;;;;;;;;;;;;;;;;;4980696;28;136555;-64
2022/06/12 05:15:29;;;;;;;;;;;;;;;;;;4985542;28;134442;-64
2022/06/12 05:17:55;;;;;;;;;;;;;;;;;;4986330;28;128458;-64
2022/06/12 05:20:22;;;;;;;;;;;;;;;;;;4987595;28;136503;-65
2022/06/12 05:22:48;;;;;;;;;;;;;;;;;;4985034;28;118279;-64
2022/06/12 05:25:14;;;;;;;;;;;;;;;;;;4984009;28;113938;-66
2022/06/12 05:27:41;;;;;;;;;;;;;;;;;;4983928;28;138246;-63
2022/06/12 05:30:07;;;;;;;;;;;;;;;;;;4980854;28;110113;-63
2022/06/12 05:32:33;;;;;;;;;;;;;;;;;;4978031;28;135327;-64
2022/06/12 05:35:00;;;;;;;;;;;;;;;;;;4986910;28;134220;-63
2022/06/12 05:37:26;;;;;;;;;;;;;;;;;;4981863;28;126106;-65
2022/06/12 05:39:52;;;;;;;;;;;;;;;;;;4984032;28;131121;-64
2022/06/12 05:42:20;;;;;;;;;;;;;;;;;;4983199;28;137046;-63
2022/06/12 05:44:47;;;;;;;;;;;;;;;;;;4985592;28;135391;-64
2022/06/12 05:47:13;;;;;;;;;;;;;;;;;;4982172;28;135287;-63
2022/06/12 05:49:39;;;;;;;;;;;;;;;;;;4985920;28;124327;-64
2022/06/12 05:52:05;;;;;;;;;;;;;;;;;;4984845;28;136109;-64
2022/06/12 05:54:33;;;;;;;;;;;;;;;;;;4984840;28;137216;-63
2022/06/12 05:56:59;;;;;;;;;;;;;;;;;;4981961;28;106630;-64
2022/06/12 05:59:25;;;;;;;;;;;;;;;;;;4977460;28;136568;-64
2022/06/12 06:01:52;;;;;;;;;;;;;;;;;;4979113;28;129105;-64
2022/06/12 06:04:18;;;;;;;;;;;;;;;;;;4986342;28;129356;-64
2022/06/12 06:06:44;;;;;;;;;;;;;;;;;;4984190;28;133603;-64
2022/06/12 06:09:11;;;;;;;;;;;;;;;;;;4983362;28;127845;-64
2022/06/12 06:11:38;;;;;;;;;;;;;;;;;;4982014;28;132914;-64
2022/06/12 06:14:04;;;;;;;;;;;;;;;;;;4984627;28;118931;-65
2022/06/12 06:16:30;;;;;;;;;;;;;;;;;;4983499;28;129910;-64
2022/06/12 06:18:57;;;;;;;;;;;;;;;;;;4986261;28;112933;-64
2022/06/12 06:21:23;;;;;;;;;;;;;;;;;;4979234;28;113806;-64
2022/06/12 06:23:49;;;;;;;;;;;;;;;;;;4982707;28;127932;-63
2022/06/12 06:26:16;;;;;;;;;;;;;;;;;;4985106;28;135285;-64
2022/06/12 06:28:43;;;;;;;;;;;;;;;;;;4978690;28;124823;-64
2022/06/12 06:31:10;;;;;;;;;;;;;;;;;;4985028;28;134078;-64
2022/06/12 06:33:36;;;;;;;;;;;;;;;;;;4981755;28;130579;-64
2022/06/12 06:36:06;;;;;;;;;;;;;;;;;;4978825;28;106625;-63
2022/06/12 06:38:32;;;;;;;;;;;;;;;;;;4984407;28;136428;-63
2022/06/12 06:40:59;;;;;;;;;;;;;;;;;;4987469;28;107558;-63
2022/06/12 06:43:25;;;;;;;;;;;;;;;;;;4980115;28;128892;-63
2022/06/12 06:48:36;;;;;;;;;;;;;;;;;;4983808;28;109843;-63
2022/06/12 06:51:03;;;;;;;;;;;;;;;;;;4980217;28;106216;-62
2022/06/12 06:53:29;;;;;;;;;;;;;;;;;;4981980;28;135819;-63
2022/06/12 06:55:55;;;;;;;;;;;;;;;;;;4983307;28;121716;-63
2022/06/12 06:58:22;;;;;;;;;;;;;;;;;;4980937;28;123813;-64
2022/06/12 07:00:48;;;;;;;;;;;;;;;;;;4977847;28;118104;-64
2022/06/12 07:03:14;;;;;;;;;;;;;;;;;;4979815;28;114695;-63
2022/06/12 07:05:41;;;;;;;;;;;;;;;;;;4981033;28;132965;-63
2022/06/12 07:08:07;;;;;;;;;;;;;;;;;;4983493;28;137337;-63
2022/06/12 07:10:33;;;;;;;;;;;;;;;;;;4974768;28;119336;-63
2022/06/12 07:13:00;;;;;;;;;;;;;;;;;;4975825;28;123228;-63
2022/06/12 07:15:26;;;;;;;;;;;;;;;;;;4980276;28;129774;-63
2022/06/12 07:17:54;;;;;;;;;;;;;;;;;;4977219;28;108656;-63
2022/06/12 07:20:20;;;;;;;;;;;;;;;;;;4980513;28;132470;-63
2022/06/12 07:22:46;;;;;;;;;;;;;;;;;;4976277;28;127939;-63
2022/06/12 07:25:12;;;;;;;;;;;;;;;;;;4974681;28;135241;-63
2022/06/12 07:27:39;;;;;;;;;;;;;;;;;;4982216;28;135858;-63
2022/06/12 07:30:05;;;;;;;;;;;;;;;;;;4982438;28;126744;-64
2022/06/12 07:32:31;;;;;;;;;;;;;;;;;;4980930;28;107717;-63
2022/06/12 07:34:58;;;;;;;;;;;;;;;;;;4982305;28;128591;-63
2022/06/12 07:37:24;;;;;;;;;;;;;;;;;;4974143;28;136165;-65
2022/06/12 07:39:50;;;;;;;;;;;;;;;;;;4981958;28;132462;-65
2022/06/12 07:42:17;;;;;;;;;;;;;;;;;;4982238;28;129184;-67
2022/06/12 07:44:43;;;;;;;;;;;;;;;;;;4976167;28;119096;-66
2022/06/12 07:47:09;;;;;;;;;;;;;;;;;;4983891;28;136948;-65
2022/06/12 07:49:36;;;;;;;;;;;;;;;;;;4981313;28;128643;-66
2022/06/12 07:52:02;;;;;;;;;;;;;;;;;;4986727;28;135529;-66
2022/06/12 07:54:28;;;;;;;;;;;;;;;;;;4978742;28;118766;-66
2022/06/12 07:56:55;;;;;;;;;;;;;;;;;;4977420;28;125715;-66
2022/06/12 07:59:21;;;;;;;;;;;;;;;;;;4985672;28;130052;-67
2022/06/12 08:01:47;;;;;;;;;;;;;;;;;;4982487;28;123367;-66
2022/06/12 08:04:14;;;;;;;;;;;;;;;;;;4981918;28;135975;-67
2022/06/12 08:06:41;;;;;;;;;;;;;;;;;;4985630;28;133844;-65
2022/06/12 08:09:10;;;;;;;;;;;;;;;;;;4982218;28;129433;-66
2022/06/12 08:11:36;;;;;;;;;;;;;;;;;;4985092;28;117408;-67
2022/06/12 08:14:02;;;;;;;;;;;;;;;;;;4985313;28;133180;-69
2022/06/12 08:16:33;;;;;;;;;;;;;;;;;;4986935;28;127308;-67
2022/06/12 08:18:59;;;;;;;;;;;;;;;;;;4981968;28;124063;-66
2022/06/12 08:21:25;;;;;;;;;;;;;;;;;;4981983;28;113634;-66
2022/06/12 08:23:52;;;;;;;;;;;;;;;;;;4977362;28;136648;-66
2022/06/12 08:26:18;;;;;;;;;;;;;;;;;;4984846;28;136276;-67
2022/06/12 08:28:44;;;;;;;;;;;;;;;;;;4987686;28;126454;-66
2022/06/12 08:31:11;;;;;;;;;;;;;;;;;;4982048;28;136763;-66
2022/06/12 08:33:37;;;;;;;;;;;;;;;;;;4975020;28;137023;-65
2022/06/12 08:36:03;;;;;;;;;;;;;;;;;;4987674;28;126934;-66
2022/06/12 08:38:30;;;;;;;;;;;;;;;;;;4987343;28;130099;-66
2022/06/12 08:40:56;;;;;;;;;;;;;;;;;;4978744;28;129296;-65
2022/06/12 08:43:22;;;;;;;;;;;;;;;;;;4985488;28;136430;-66
2022/06/12 08:45:49;;;;;;;;;;;;;;;;;;4986696;28;135030;-66
2022/06/12 08:48:15;;;;;;;;;;;;;;;;;;4983801;28;130435;-65
2022/06/12 08:50:42;;;;;;;;;;;;;;;;;;4987043;28;136857;-66
2022/06/12 08:53:08;;;;;;;;;;;;;;;;;;4975650;28;138535;-64
2022/06/12 08:55:34;;;;;;;;;;;;;;;;;;4979511;28;129332;-66
2022/06/12 08:58:01;;;;;;;;;;;;;;;;;;4989085;28;135505;-65
2022/06/12 09:00:27;;;;;;;;;;;;;;;;;;4978571;28;126656;-67
2022/06/12 09:02:53;;;;;;;;;;;;;;;;;;4982236;28;136894;-66
2022/06/12 09:05:20;;;;;;;;;;;;;;;;;;4987403;28;125667;-65
2022/06/12 09:07:47;;;;;;;;;;;;;;;;;;4980368;28;129375;-67
2022/06/12 09:10:13;;;;;;;;;;;;;;;;;;4984901;28;119277;-66
2022/06/12 09:12:40;;;;;;;;;;;;;;;;;;4983434;28;126348;-66
2022/06/12 09:15:06;;;;;;;;;;;;;;;;;;4978735;28;106651;-66
2022/06/12 09:17:32;;;;;;;;;;;;;;;;;;4986686;28;136197;-65
2022/06/12 09:19:59;;;;;;;;;;;;;;;;;;4983256;28;106721;-63
2022/06/12 09:22:25;;;;;;;;;;;;;;;;;;4982645;28;106707;-65
2022/06/12 09:24:52;;;;;;;;;;;;;;;;;;4982312;28;133607;-64
2022/06/12 09:27:18;;;;;;;;;;;;;;;;;;4983427;28;130245;-65
2022/06/12 09:29:44;;;;;;;;;;;;;;;;;;4985456;28;130925;-66
2022/06/12 09:32:10;;;;;;;;;;;;;;;;;;4981614;28;113953;-65
2022/06/12 09:34:37;;;;;;;;;;;;;;;;;;4981895;28;106277;-65
2022/06/12 09:38:18;;;;;;;;;;;;;;;;;;4987364;28;131941;-68
2022/06/12 09:40:06;;;;;;;;;;;;;;;;;;4987104;28;136006;-64
2022/06/12 09:42:34;;;;;;;;;;;;;;;;;;4984448;28;136834;-65
2022/06/12 09:45:00;;;;;;;;;;;;;;;;;;4975041;28;135521;-64
2022/06/12 09:47:27;;;;;;;;;;;;;;;;;;4984301;28;122472;-65
2022/06/12 09:50:09;;;;;;;;;;;;;;;;;;4979675;28;135322;-66
2022/06/12 09:52:35;;;;;;;;;;;;;;;;;;4987333;28;137364;-65
2022/06/12 09:55:02;;;;;;;;;;;;;;;;;;4982149;28;118195;-66
2022/06/12 09:57:28;;;;;;;;;;;;;;;;;;4984874;28;136472;-65
2022/06/12 09:59:54;;;;;;;;;;;;;;;;;;4986530;28;126279;-66
2022/06/12 10:02:21;;;;;;;;;;;;;;;;;;4990248;28;129273;-65
2022/06/12 10:04:49;;;;;;;;;;;;;;;;;;4981924;28;108819;-65
2022/06/12 10:07:15;;;;;;;;;;;;;;;;;;4983835;28;129711;-65
2022/06/12 10:09:42;;;;;;;;;;;;;;;;;;4981202;28;126125;-65
2022/06/12 10:12:08;;;;;;;;;;;;;;;;;;4980122;28;132785;-66
2022/06/12 10:14:34;;;;;;;;;;;;;;;;;;4974598;28;122398;-67
2022/06/12 10:17:01;;;;;;;;;;;;;;;;;;4975536;28;135448;-64
2022/06/12 10:19:34;;;;;;;;;;;;;;;;;;4983172;28;136920;-66
2022/06/12 10:22:01;;;;;;;;;;;;;;;;;;4987117;28;128888;-66
2022/06/12 10:24:27;;;;;;;;;;;;;;;;;;4988255;28;137043;-64
2022/06/12 10:26:53;;;;;;;;;;;;;;;;;;4986688;28;129231;-65
2022/06/12 10:29:24;;;;;;;;;;;;;;;;;;4982060;28;128385;-64
2022/06/12 10:31:51;;;;;;;;;;;;;;;;;;4975997;28;137263;-64
2022/06/12 10:34:17;;;;;;;;;;;;;;;;;;4980129;28;126932;-64
2022/06/12 10:36:43;;;;;;;;;;;;;;;;;;4987694;28;119794;-64
2022/06/12 10:39:10;;;;;;;;;;;;;;;;;;4983910;28;138266;-65
2022/06/12 10:41:36;;;;;;;;;;;;;;;;;;4984278;28;106950;-65
2022/06/12 10:44:02;;;;;;;;;;;;;;;;;;4983465;28;131325;-66
2022/06/12 10:46:30;;;;;;;;;;;;;;;;;;4987670;28;137976;-65
2022/06/12 10:48:56;;;;;;;;;;;;;;;;;;4982022;28;132403;-66
2022/06/12 10:51:23;;;;;;;;;;;;;;;;;;4982921;28;127239;-66
2022/06/12 10:53:49;;;;;;;;;;;;;;;;;;4982615;28;126314;-65
2022/06/12 10:56:15;;;;;;;;;;;;;;;;;;4981631;28;135851;-66
2022/06/12 10:58:42;;;;;;;;;;;;;;;;;;4979747;28;136476;-66
2022/06/12 11:01:08;;;;;;;;;;;;;;;;;;4981908;28;119008;-66
2022/06/12 11:03:35;;;;;;;;;;;;;;;;;;4987932;28;110752;-66
2022/06/12 11:06:01;;;;;;;;;;;;;;;;;;4977925;28;130076;-65
2022/06/12 11:08:27;;;;;;;;;;;;;;;;;;4988183;28;128308;-65
2022/06/12 11:10:54;;;;;;;;;;;;;;;;;;4976735;28;137304;-66
2022/06/12 11:13:20;;;;;;;;;;;;;;;;;;4982575;28;131012;-65
2022/06/12 11:15:46;;;;;;;;;;;;;;;;;;4983155;28;116400;-66
2022/06/12 11:18:14;;;;;;;;;;;;;;;;;;4982937;28;120681;-65
2022/06/12 11:20:41;;;;;;;;;;;;;;;;;;4981410;28;106401;-66
2022/06/12 11:23:08;;;;;;;;;;;;;;;;;;4979318;28;132855;-66
2022/06/12 11:25:54;;;;;;;;;;;;;;;;;;4983955;28;108495;-65
2022/06/12 11:28:20;;;;;;;;;;;;;;;;;;4984181;28;108291;-66
2022/06/12 11:30:47;;;;;;;;;;;;;;;;;;4978213;28;135973;-66
2022/06/12 11:33:13;;;;;;;;;;;;;;;;;;4988521;28;107354;-66
2022/06/12 11:35:40;;;;;;;;;;;;;;;;;;4989011;28;132069;-66
2022/06/12 11:38:06;;;;;;;;;;;;;;;;;;4980792;28;125062;-67
2022/06/12 11:40:33;;;;;;;;;;;;;;;;;;4988798;28;118371;-66
2022/06/12 11:42:59;;;;;;;;;;;;;;;;;;4985132;28;138074;-66
2022/06/12 11:45:45;;;;;;;;;;;;;;;;;;4983541;28;136879;-67
2022/06/12 11:48:12;;;;;;;;;;;;;;;;;;4989371;28;120206;-66
2022/06/12 11:50:38;;;;;;;;;;;;;;;;;;4986127;28;130846;-65
2022/06/12 11:53:04;;;;;;;;;;;;;;;;;;4983084;28;129079;-66
2022/06/12 11:55:31;;;;;;;;;;;;;;;;;;4991420;28;117035;-66
2022/06/12 11:57:57;;;;;;;;;;;;;;;;;;4984756;28;134909;-66
2022/06/12 12:00:23;;;;;;;;;;;;;;;;;;4986008;28;106857;-66
2022/06/12 12:02:50;;;;;;;;;;;;;;;;;;4987274;28;138024;-65
2022/06/12 12:05:17;;;;;;;;;;;;;;;;;;4983585;28;136654;-66
2022/06/12 12:07:43;;;;;;;;;;;;;;;;;;4978337;28;118943;-66
2022/06/12 12:10:09;;;;;;;;;;;;;;;;;;4986974;28;137298;-66
2022/06/12 12:12:36;;;;;;;;;;;;;;;;;;4983170;28;114089;-66
2022/06/12 12:15:02;;;;;;;;;;;;;;;;;;4988319;28;132549;-65
2022/06/12 12:17:29;;;;;;;;;;;;;;;;;;4973020;28;130193;-66
2022/06/12 12:19:59;;;;;;;;;;;;;;;;;;4982150;28;113232;-65
2022/06/12 12:22:25;;;;;;;;;;;;;;;;;;4983861;28;119044;-66
2022/06/12 12:24:51;;;;;;;;;;;;;;;;;;4985351;28;136293;-66
2022/06/12 12:27:18;;;;;;;;;;;;;;;;;;4987027;28;126679;-66
2022/06/12 12:29:44;;;;;;;;;;;;;;;;;;4981407;28;135682;-66
2022/06/12 12:32:10;;;;;;;;;;;;;;;;;;4977973;28;137610;-66
2022/06/12 12:34:36;;;;;;;;;;;;;;;;;;4989704;28;119212;-66
2022/06/12 12:42:50;;;;;;;;;;;;;;;;;;4986320;28;136997;-66
2022/06/12 12:45:16;;;;;;;;;;;;;;;;;;4979703;28;137863;-66
2022/06/12 12:47:42;;;;;;;;;;;;;;;;;;4988472;28;107877;-66
2022/06/12 12:50:08;;;;;;;;;;;;;;;;;;4978225;28;131180;-67
2022/06/12 12:52:35;;;;;;;;;;;;;;;;;;4984062;28;124811;-67
2022/06/12 12:55:01;;;;;;;;;;;;;;;;;;4984882;28;124322;-66
2022/06/12 12:57:28;;;;;;;;;;;;;;;;;;4987240;28;136770;-66
2022/06/12 12:59:54;;;;;;;;;;;;;;;;;;4981232;28;107860;-67
2022/06/12 13:02:21;;;;;;;;;;;;;;;;;;4984440;28;137289;-66
2022/06/12 13:04:47;;;;;;;;;;;;;;;;;;4979917;28;138245;-66
2022/06/12 13:07:13;;;;;;;;;;;;;;;;;;4984898;28;132813;-67
2022/06/12 13:09:40;;;;;;;;;;;;;;;;;;4977770;28;111253;-67
2022/06/12 13:12:07;;;;;;;;;;;;;;;;;;4986701;28;127403;-67
2022/06/12 13:14:33;;;;;;;;;;;;;;;;;;4984293;28;124632;-67
2022/06/12 13:16:59;;;;;;;;;;;;;;;;;;4981489;28;137145;-66
2022/06/12 13:19:26;;;;;;;;;;;;;;;;;;4984641;28;138482;-66
2022/06/12 13:21:52;;;;;;;;;;;;;;;;;;4978190;28;128677;-67
2022/06/12 13:24:18;;;;;;;;;;;;;;;;;;4980899;28;136584;-67
2022/06/12 13:26:44;;;;;;;;;;;;;;;;;;4984693;28;111037;-68
2022/06/12 13:29:11;;;;;;;;;;;;;;;;;;4983970;28;130338;-67
2022/06/12 13:31:37;;;;;;;;;;;;;;;;;;4978514;28;108295;-68
2022/06/12 13:34:03;;;;;;;;;;;;;;;;;;4983945;28;124809;-66
2022/06/12 13:36:30;;;;;;;;;;;;;;;;;;4985977;28;120224;-66
2022/06/12 13:38:56;;;;;;;;;;;;;;;;;;4985653;28;108156;-66
2022/06/12 13:41:22;;;;;;;;;;;;;;;;;;4981298;28;138347;-66
2022/06/12 13:43:49;;;;;;;;;;;;;;;;;;4978460;28;135759;-66
2022/06/12 13:46:15;;;;;;;;;;;;;;;;;;4983046;28;107141;-66
2022/06/12 13:48:41;;;;;;;;;;;;;;;;;;4981016;28;133142;-67
2022/06/12 13:51:07;;;;;;;;;;;;;;;;;;4981639;28;131885;-67
2022/06/12 13:53:34;;;;;;;;;;;;;;;;;;4977551;28;122091;-69
2022/06/12 13:56:01;;;;;;;;;;;;;;;;;;4984254;28;136479;-66
2022/06/12 13:58:27;;;;;;;;;;;;;;;;;;4972782;28;138564;-67
2022/06/12 14:00:54;;;;;;;;;;;;;;;;;;4985759;28;120369;-67
2022/06/12 14:03:20;;;;;;;;;;;;;;;;;;4972992;28;126126;-68
2022/06/12 14:05:47;;;;;;;;;;;;;;;;;;4977745;28;108510;-66
2022/06/12 14:08:13;;;;;;;;;;;;;;;;;;4978595;28;130326;-67
2022/06/12 14:10:39;;;;;;;;;;;;;;;;;;4980466;28;118735;-66
2022/06/12 14:13:06;;;;;;;;;;;;;;;;;;4982508;28;128840;-67
2022/06/12 14:15:32;;;;;;;;;;;;;;;;;;4983950;28;137875;-66
2022/06/12 14:17:59;;;;;;;;;;;;;;;;;;4976583;28;138603;-66
2022/06/12 14:20:28;;;;;;;;;;;;;;;;;;4977686;28;116004;-66
2022/06/12 14:22:54;;;;;;;;;;;;;;;;;;4984869;28;136992;-66
2022/06/12 14:25:21;;;;;;;;;;;;;;;;;;4979143;28;109945;-69
2022/06/12 14:27:47;;;;;;;;;;;;;;;;;;4982685;28;111066;-66
2022/06/12 14:30:13;;;;;;;;;;;;;;;;;;4973243;28;137902;-66
2022/06/12 14:32:54;;;;;;;;;;;;;;;;;;4975923;28;130615;-66
2022/06/12 14:35:20;;;;;;;;;;;;;;;;;;4983358;28;117978;-67
2022/06/12 14:37:46;;;;;;;;;;;;;;;;;;4977983;28;138734;-66
2022/06/12 14:40:13;;;;;;;;;;;;;;;;;;4981445;28;129147;-66
2022/06/12 14:42:39;;;;;;;;;;;;;;;;;;4981730;28;135134;-66
2022/06/12 14:45:06;;;;;;;;;;;;;;;;;;4989311;28;107914;-66
2022/06/12 14:47:34;;;;;;;;;;;;;;;;;;4980574;28;134477;-67
2022/06/12 14:50:00;;;;;;;;;;;;;;;;;;4981822;28;108242;-66
2022/06/12 14:52:30;;;;;;;;;;;;;;;;;;4979397;28;127505;-67
2022/06/12 14:54:56;;;;;;;;;;;;;;;;;;4978337;28;135857;-66
2022/06/12 14:57:23;;;;;;;;;;;;;;;;;;4985045;28;108400;-66
2022/06/12 14:59:49;;;;;;;;;;;;;;;;;;4975819;28;127410;-65
2022/06/12 15:02:15;;;;;;;;;;;;;;;;;;4977609;28;136323;-66
2022/06/12 15:04:42;;;;;;;;;;;;;;;;;;4974341;28;128728;-66
2022/06/12 15:07:08;;;;;;;;;;;;;;;;;;4990189;28;125747;-66
2022/06/12 15:09:34;;;;;;;;;;;;;;;;;;4981774;28;137512;-68
2022/06/12 15:12:01;;;;;;;;;;;;;;;;;;4979170;28;108502;-64
2022/06/12 15:14:27;;;;;;;;;;;;;;;;;;4979403;28;135812;-72
2022/06/12 15:16:53;;;;;;;;;;;;;;;;;;4971574;28;134144;-65
2022/06/12 15:19:19;;;;;;;;;;;;;;;;;;4975342;28;123430;-66
2022/06/12 15:21:46;;;;;;;;;;;;;;;;;;4982026;28;116274;-66
2022/06/12 15:24:12;;;;;;;;;;;;;;;;;;4977094;28;129216;-65
2022/06/12 15:32:10;;;;;;;;;;;;;;;;;;4975738;28;119995;-66
2022/06/12 15:34:36;;;;;;;;;;;;;;;;;;4978295;28;127779;-67
2022/06/12 15:37:03;;;;;;;;;;;;;;;;;;4981661;28;118463;-65
2022/06/12 15:39:29;;;;;;;;;;;;;;;;;;4987697;28;116728;-66
2022/06/12 15:41:55;;;;;;;;;;;;;;;;;;4984672;28;133619;-65
2022/06/12 15:44:22;;;;;;;;;;;;;;;;;;4982675;28;137337;-67
2022/06/12 15:46:48;;;;;;;;;;;;;;;;;;4979268;28;106383;-68
2022/06/12 15:49:19;;;;;;;;;;;;;;;;;;4989495;28;121795;-65
2022/06/12 15:51:45;;;;;;;;;;;;;;;;;;4978801;28;108672;-66
2022/06/12 15:54:15;;;;;;;;;;;;;;;;;;4982023;28;137016;-66
2022/06/12 15:56:42;;;;;;;;;;;;;;;;;;4981586;28;126016;-69
2022/06/12 15:59:08;;;;;;;;;;;;;;;;;;4973667;28;123701;-68
2022/06/12 16:01:34;;;;;;;;;;;;;;;;;;4986166;28;129860;-69
2022/06/12 16:04:01;;;;;;;;;;;;;;;;;;4981290;28;137800;-66
2022/06/12 16:06:27;;;;;;;;;;;;;;;;;;4981919;28;129464;-67
2022/06/12 16:08:53;;;;;;;;;;;;;;;;;;4980038;28;129222;-67
2022/06/12 16:11:20;;;;;;;;;;;;;;;;;;4981394;28;130941;-68
2022/06/12 16:13:46;;;;;;;;;;;;;;;;;;4982831;28;133380;-67
2022/06/12 16:16:13;;;;;;;;;;;;;;;;;;4984984;28;108171;-67
2022/06/12 16:18:39;;;;;;;;;;;;;;;;;;4984245;28;123190;-67
2022/06/12 16:21:07;;;;;;;;;;;;;;;;;;4990555;27;120723;-67
2022/06/12 16:23:34;;;;;;;;;;;;;;;;;;4983924;28;128260;-69
2022/06/12 16:26:00;;;;;;;;;;;;;;;;;;4977241;28;127350;-66
2022/06/12 16:28:26;;;;;;;;;;;;;;;;;;4979112;28;115726;-67
2022/06/12 16:30:54;;;;;;;;;;;;;;;;;;4972999;28;127817;-66
2022/06/12 16:33:20;;;;;;;;;;;;;;;;;;4981523;28;126223;-66
2022/06/12 16:35:46;;;;;;;;;;;;;;;;;;4974314;28;128590;-66
2022/06/12 16:38:13;;;;;;;;;;;;;;;;;;4980209;28;129323;-67
2022/06/12 16:40:39;;;;;;;;;;;;;;;;;;4977670;28;136952;-67
2022/06/12 16:43:05;;;;;;;;;;;;;;;;;;4977146;28;127649;-67
2022/06/12 16:45:36;;;;;;;;;;;;;;;;;;4979333;28;127093;-67
2022/06/12 16:48:02;;;;;;;;;;;;;;;;;;4976501;28;107868;-67